Time;durP1;ratioP1;P1;durP2;ratioP2;P2;SDS_P1;SDS_P2;PMS_P1;PMS_P2;Temp;Humidity;BMP_temperature;BMP_pressure;BME280_temperature;BME280_humidity;BME280_pressure;Samples;Min_cycle;Max_cycle;Signal;HPM_P1;HPM_P2
2022/10/07 00:01:27;;;;;;;11.90;4.57;;;8.90;99.90;;;;;;4965177;28;20079;-76
2022/10/07 00:03:53;;;;;;;14.05;5.00;;;8.90;99.90;;;;;;4953588;28;20047;-76
2022/10/07 00:06:20;;;;;;;13.10;4.50;;;8.80;99.90;;;;;;4956702;28;20046;-76
2022/10/07 00:08:51;;;;;;;12.63;4.72;;;8.80;99.90;;;;;;4969374;28;20414;-76
2022/10/07 00:11:25;;;;;;;13.00;4.53;;;8.80;99.90;;;;;;4968190;28;20066;-76
2022/10/07 00:13:53;;;;;;;12.07;5.22;;;8.80;99.90;;;;;;4972117;28;20044;-76
2022/10/07 00:16:27;;;;;;;10.05;4.90;;;8.80;99.90;;;;;;4968382;28;20071;-76
2022/10/07 00:18:56;;;;;;;13.40;4.93;;;8.80;99.90;;;;;;4961660;28;20051;-76
2022/10/07 00:21:23;;;;;;;14.20;4.85;;;8.80;99.90;;;;;;4970625;28;20055;-76
2022/10/07 00:23:49;;;;;;;13.35;5.15;;;8.80;99.90;;;;;;4972541;28;20046;-76
2022/10/07 00:26:18;;;;;;;10.85;4.55;;;8.70;99.90;;;;;;4971858;28;20042;-76
2022/10/07 00:28:45;;;;;;;13.88;5.10;;;8.70;99.90;;;;;;4972036;28;20058;-76
2022/10/07 00:31:17;;;;;;;9.20;3.97;;;8.70;99.90;;;;;;4971910;28;20047;-76
2022/10/07 00:33:43;;;;;;;12.25;4.80;;;8.70;99.90;;;;;;4956199;28;20055;-76
2022/10/07 00:36:19;;;;;;;10.52;4.22;;;8.70;99.90;;;;;;4969153;28;20047;-76
2022/10/07 00:38:54;;;;;;;16.05;5.43;;;8.70;99.90;;;;;;4956349;28;20552;-76
2022/10/07 00:41:44;;;;;;;13.25;5.28;;;8.60;99.90;;;;;;4967382;28;20077;-76
2022/10/07 00:44:28;;;;;;;13.20;5.40;;;8.60;99.90;;;;;;4956364;28;20399;-76
2022/10/07 00:46:55;;;;;;;9.20;4.65;;;8.60;99.90;;;;;;4946149;28;20181;-76
2022/10/07 00:49:21;;;;;;;12.95;4.80;;;8.60;99.90;;;;;;4968270;28;20047;-76
2022/10/07 00:51:50;;;;;;;11.98;4.90;;;8.60;99.90;;;;;;4970089;28;20077;-76
2022/10/07 00:54:18;;;;;;;12.00;4.80;;;8.60;99.90;;;;;;4972700;28;20043;-76
2022/10/07 00:56:45;;;;;;;14.05;4.80;;;8.60;99.90;;;;;;4956241;28;20046;-76
2022/10/07 00:59:13;;;;;;;13.40;5.03;;;8.60;99.90;;;;;;4959521;28;20049;-76
2022/10/07 01:01:40;;;;;;;12.73;5.25;;;8.50;99.90;;;;;;4958804;28;20109;-76
2022/10/07 01:04:09;;;;;;;12.40;5.50;;;8.50;99.90;;;;;;4968926;28;20050;-76
2022/10/07 01:06:38;;;;;;;12.98;4.90;;;8.50;99.90;;;;;;4956763;28;20054;-76
2022/10/07 01:09:08;;;;;;;13.23;5.25;;;8.50;99.90;;;;;;4943181;28;20043;-76
2022/10/07 01:11:56;;;;;;;11.40;5.05;;;8.50;99.90;;;;;;4968435;28;20065;-76
2022/10/07 01:14:34;;;;;;;9.95;3.80;;;8.50;99.90;;;;;;4971975;28;20078;-76
2022/10/07 01:17:18;;;;;;;12.55;4.65;;;8.50;99.90;;;;;;4970260;28;20045;-76
2022/10/07 01:19:44;;;;;;;11.68;4.85;;;8.50;99.90;;;;;;4983581;28;20043;-76
2022/10/07 01:22:24;;;;;;;13.05;5.50;;;8.40;99.90;;;;;;4977417;28;20054;-76
2022/10/07 01:25:17;;;;;;;11.43;4.45;;;8.40;99.90;;;;;;4959601;28;20050;-76
2022/10/07 01:27:52;;;;;;;11.98;4.80;;;8.40;99.90;;;;;;4958356;28;20079;-76
2022/10/07 01:30:18;;;;;;;11.20;4.22;;;8.40;99.90;;;;;;4956189;28;20495;-76
2022/10/07 01:33:01;;;;;;;10.18;4.18;;;8.30;99.90;;;;;;4968722;28;20058;-76
2022/10/07 01:35:33;;;;;;;13.13;4.90;;;8.40;99.90;;;;;;4968717;28;20431;-76
2022/10/07 01:38:04;;;;;;;15.32;5.25;;;8.30;99.90;;;;;;4971784;28;20047;-76
2022/10/07 01:40:44;;;;;;;10.50;4.35;;;8.30;99.90;;;;;;4965108;28;20139;-76
2022/10/07 01:43:16;;;;;;;10.20;4.30;;;8.30;99.90;;;;;;4958488;28;20074;-76
2022/10/07 01:45:42;;;;;;;12.23;5.07;;;8.30;99.90;;;;;;4968073;28;20042;-76
2022/10/07 01:48:08;;;;;;;15.30;5.40;;;8.30;99.90;;;;;;4945178;28;20046;-76
2022/10/07 01:50:34;;;;;;;10.38;4.22;;;8.30;99.90;;;;;;4955760;28;20541;-76
2022/10/07 01:53:38;;;;;;;12.20;4.70;;;8.30;99.90;;;;;;4971077;28;20112;-76
2022/10/07 01:56:38;;;;;;;14.68;4.95;;;8.30;99.90;;;;;;4971742;28;20047;-76
2022/10/07 01:59:31;;;;;;;13.52;4.95;;;8.20;99.90;;;;;;4955972;28;20475;-76
2022/10/07 02:02:07;;;;;;;10.60;4.50;;;8.20;99.90;;;;;;4976930;28;20097;-76
2022/10/07 02:04:38;;;;;;;12.27;4.78;;;8.20;99.90;;;;;;4971548;28;20126;-76
2022/10/07 02:07:35;;;;;;;12.88;4.68;;;8.20;99.90;;;;;;4971519;28;20043;-76
2022/10/07 02:10:15;;;;;;;11.25;4.88;;;8.20;99.90;;;;;;4966284;28;20486;-76
2022/10/07 02:13:11;;;;;;;11.88;5.13;;;8.20;99.90;;;;;;4972841;28;20039;-76
2022/10/07 02:16:17;;;;;;;13.65;4.75;;;8.10;99.90;;;;;;4947522;28;20035;-76
2022/10/07 02:18:48;;;;;;;12.23;4.70;;;8.20;99.90;;;;;;4917600;29;20553;-76
2022/10/07 02:21:20;;;;;;;12.23;5.30;;;8.20;99.90;;;;;;4961100;28;20038;-76
2022/10/07 02:23:48;;;;;;;16.45;5.57;;;8.20;99.90;;;;;;4958371;28;20121;-76
2022/10/07 02:26:17;;;;;;;15.30;5.43;;;8.20;99.90;;;;;;4973874;28;20043;-76
2022/10/07 02:28:46;;;;;;;13.23;4.93;;;8.20;99.90;;;;;;4957620;28;20047;-76
2022/10/07 02:31:16;;;;;;;15.50;5.53;;;8.20;99.90;;;;;;4973717;28;20038;-76
2022/10/07 02:33:45;;;;;;;15.68;5.13;;;8.20;99.90;;;;;;4974123;28;20506;-76
2022/10/07 02:36:21;;;;;;;14.75;5.45;;;8.20;99.90;;;;;;4976939;28;20045;-76
2022/10/07 02:38:48;;;;;;;17.13;5.40;;;8.10;99.90;;;;;;4967229;28;20507;-76
2022/10/07 02:41:31;;;;;;;16.20;5.38;;;8.10;99.90;;;;;;4957348;28;20057;-76
2022/10/07 02:44:06;;;;;;;14.50;5.25;;;8.10;99.90;;;;;;4973595;28;20077;-76
2022/10/07 02:46:41;;;;;;;12.77;4.82;;;8.20;99.90;;;;;;4957006;28;20326;-76
2022/10/07 02:49:11;;;;;;;14.45;5.22;;;8.10;99.90;;;;;;4970825;28;20095;-76
2022/10/07 02:51:45;;;;;;;14.05;5.50;;;8.20;99.90;;;;;;4972838;28;20042;-76
2022/10/07 02:54:15;;;;;;;14.13;5.60;;;8.20;99.90;;;;;;4957705;28;20093;-76
2022/10/07 02:56:42;;;;;;;16.77;5.80;;;8.10;99.90;;;;;;4960140;28;20502;-76
2022/10/07 02:59:10;;;;;;;15.95;5.47;;;8.20;99.90;;;;;;4954057;28;20155;-76
2022/10/07 03:01:45;;;;;;;15.65;5.60;;;8.20;99.90;;;;;;4957171;28;20478;-76
2022/10/07 03:04:11;;;;;;;15.45;5.75;;;8.30;99.90;;;;;;4973718;28;20515;-76
2022/10/07 03:06:37;;;;;;;14.25;5.88;;;8.20;99.90;;;;;;4956520;28;20046;-76
2022/10/07 03:09:03;;;;;;;12.65;5.30;;;8.20;99.90;;;;;;4938148;29;20043;-76
2022/10/07 03:11:29;;;;;;;16.10;5.35;;;8.20;99.90;;;;;;4957189;28;20054;-76
2022/10/07 03:13:56;;;;;;;15.35;5.13;;;8.20;99.90;;;;;;4972938;28;20490;-76
2022/10/07 03:16:21;;;;;;;16.52;6.00;;;8.20;99.90;;;;;;4956520;28;20043;-76
2022/10/07 03:18:47;;;;;;;14.77;5.78;;;8.30;99.90;;;;;;4956914;28;20053;-76
2022/10/07 03:21:13;;;;;;;16.02;6.07;;;8.20;99.90;;;;;;4938170;29;20043;-76
2022/10/07 03:23:38;;;;;;;19.05;6.15;;;8.20;99.90;;;;;;4967213;28;20410;-76
2022/10/07 03:26:04;;;;;;;17.13;5.70;;;8.20;99.90;;;;;;4969742;28;20491;-76
2022/10/07 03:28:34;;;;;;;15.52;5.80;;;8.30;99.90;;;;;;4962149;28;20074;-76
2022/10/07 03:31:05;;;;;;;18.77;5.80;;;8.20;99.90;;;;;;4971288;28;20035;-76
2022/10/07 03:33:31;;;;;;;15.02;5.10;;;8.30;99.90;;;;;;4972955;28;20156;-76
2022/10/07 03:35:57;;;;;;;17.90;5.50;;;8.30;99.90;;;;;;4959463;28;20350;-76
2022/10/07 03:38:22;;;;;;;19.52;6.65;;;8.30;99.90;;;;;;4957084;28;20070;-76
2022/10/07 03:40:48;;;;;;;15.52;5.50;;;8.30;99.90;;;;;;4957181;28;20055;-76
2022/10/07 03:43:14;;;;;;;17.55;5.75;;;8.30;99.90;;;;;;4956188;28;20039;-76
2022/10/07 03:45:43;;;;;;;13.75;5.32;;;8.30;99.90;;;;;;4956870;28;20045;-76
2022/10/07 03:48:09;;;;;;;19.08;6.18;;;8.30;99.90;;;;;;4969690;28;20501;-76
2022/10/07 03:50:36;;;;;;;18.45;5.18;;;8.30;99.90;;;;;;4963487;28;20046;-76
2022/10/07 03:53:03;;;;;;;19.40;5.70;;;8.30;99.90;;;;;;4946761;28;20376;-76
2022/10/07 03:55:29;;;;;;;20.15;6.60;;;8.30;99.90;;;;;;4970016;28;20134;-76
2022/10/07 03:57:56;;;;;;;21.20;6.00;;;8.20;99.90;;;;;;4950484;28;20122;-76
2022/10/07 04:00:24;;;;;;;15.40;6.15;;;8.30;99.90;;;;;;4957214;28;20047;-76
2022/10/07 04:02:51;;;;;;;15.60;5.53;;;8.30;99.90;;;;;;4946637;28;20098;-76
2022/10/07 04:05:19;;;;;;;15.38;5.60;;;8.30;99.90;;;;;;4972311;28;20042;-76
2022/10/07 04:07:46;;;;;;;15.63;5.82;;;8.30;99.90;;;;;;4969455;28;20043;-76
2022/10/07 04:10:14;;;;;;;18.30;6.30;;;8.30;99.90;;;;;;4970614;28;20043;-76
2022/10/07 04:12:40;;;;;;;19.13;6.30;;;8.30;99.90;;;;;;4968964;28;20055;-76
2022/10/07 04:15:07;;;;;;;17.35;5.90;;;8.40;99.90;;;;;;4953162;28;20154;-76
2022/10/07 04:17:33;;;;;;;19.60;6.50;;;8.40;99.90;;;;;;4971602;28;20042;-76
2022/10/07 04:19:58;;;;;;;19.95;6.65;;;8.30;99.90;;;;;;4937416;29;20039;-76
2022/10/07 04:22:24;;;;;;;16.38;6.20;;;8.30;99.90;;;;;;4954206;28;20050;-76
2022/10/07 04:27:35;;;;;;;20.73;6.10;;;8.40;99.90;;;;;;4972978;28;20082;-76
2022/10/07 04:30:02;;;;;;;18.10;6.30;;;8.30;99.90;;;;;;4976621;28;20047;-76
2022/10/07 04:32:29;;;;;;;15.95;5.95;;;8.30;99.90;;;;;;4975638;28;20059;-76
2022/10/07 04:34:55;;;;;;;17.52;6.38;;;8.40;99.90;;;;;;4976248;28;20043;-76
2022/10/07 04:37:21;;;;;;;19.15;6.07;;;8.30;99.90;;;;;;4957558;28;20129;-76
2022/10/07 04:39:47;;;;;;;17.23;6.40;;;8.40;99.90;;;;;;4976358;28;20042;-76
2022/10/07 04:43:17;;;;;;;16.98;5.95;;;8.40;99.90;;;;;;4975863;28;20035;-76
2022/10/07 04:44:58;;;;;;;21.13;6.57;;;8.40;99.90;;;;;;4960753;28;20039;-76
2022/10/07 04:47:24;;;;;;;20.17;6.22;;;8.40;99.90;;;;;;4969733;28;20043;-76
2022/10/07 04:49:52;;;;;;;19.30;6.15;;;8.40;99.90;;;;;;4972653;28;20035;-76
2022/10/07 04:52:19;;;;;;;19.30;6.85;;;8.40;99.90;;;;;;4966901;28;20540;-76
2022/10/07 04:54:45;;;;;;;17.70;6.47;;;8.40;99.90;;;;;;4960004;28;20047;-76
2022/10/07 04:57:12;;;;;;;18.02;6.03;;;8.50;99.90;;;;;;4959377;28;20070;-76
2022/10/07 04:59:38;;;;;;;21.98;7.05;;;8.40;99.90;;;;;;4975522;28;20042;-76
2022/10/07 05:02:04;;;;;;;22.50;6.57;;;8.50;99.90;;;;;;4975413;28;20039;-76
2022/10/07 05:04:30;;;;;;;21.08;6.90;;;8.50;99.90;;;;;;4960127;28;20045;-76
2022/10/07 05:06:56;;;;;;;18.83;6.38;;;8.50;99.90;;;;;;4969913;28;20035;-76
2022/10/07 05:09:21;;;;;;;18.95;6.22;;;8.40;99.90;;;;;;4950929;28;20043;-76
2022/10/07 05:11:48;;;;;;;19.10;6.13;;;8.50;99.90;;;;;;4975026;28;20031;-76
2022/10/07 05:14:14;;;;;;;19.40;6.60;;;8.40;99.90;;;;;;4975525;28;20512;-76
2022/10/07 05:16:40;;;;;;;21.85;6.75;;;8.40;99.90;;;;;;4959037;28;20042;-76
2022/10/07 05:19:05;;;;;;;18.52;6.15;;;8.50;99.90;;;;;;4959033;28;20050;-76
2022/10/07 05:21:32;;;;;;;21.80;7.50;;;8.40;99.90;;;;;;4975941;28;20093;-76
2022/10/07 05:23:58;;;;;;;21.30;6.55;;;8.50;99.90;;;;;;4959060;28;20042;-77
2022/10/07 05:26:23;;;;;;;24.35;7.43;;;8.50;99.90;;;;;;4955057;28;20043;-76
2022/10/07 05:28:49;;;;;;;20.48;6.70;;;8.50;99.90;;;;;;4956094;28;20047;-76
2022/10/07 05:31:15;;;;;;;23.15;6.60;;;8.50;99.90;;;;;;4955237;28;20039;-76
2022/10/07 05:33:42;;;;;;;24.27;7.40;;;8.50;99.90;;;;;;4957850;28;20113;-75
2022/10/07 05:36:10;;;;;;;20.83;6.80;;;8.50;99.90;;;;;;4977952;28;20039;-75
2022/10/07 05:38:36;;;;;;;23.60;7.07;;;8.50;99.90;;;;;;4954099;28;20147;-75
2022/10/07 05:41:04;;;;;;;21.38;6.88;;;8.60;99.90;;;;;;4963134;28;20520;-78
2022/10/07 05:43:32;;;;;;;18.48;6.93;;;8.50;99.90;;;;;;4950874;28;20035;-77
2022/10/07 05:46:07;;;;;;;22.40;6.85;;;8.60;99.90;;;;;;4953428;28;20062;-78
2022/10/07 05:48:34;;;;;;;20.83;6.80;;;8.50;99.90;;;;;;4956773;28;20051;-78
2022/10/07 05:51:00;;;;;;;20.13;6.20;;;8.50;99.90;;;;;;4968189;28;20093;-79
2022/10/07 05:53:27;;;;;;;22.35;7.00;;;8.50;99.90;;;;;;4964994;28;20031;-78
2022/10/07 05:55:53;;;;;;;24.40;7.30;;;8.50;99.90;;;;;;4957440;28;20043;-78
2022/10/07 05:58:19;;;;;;;22.17;6.90;;;8.60;99.90;;;;;;4953081;28;20047;-78
2022/10/07 06:00:57;;;;;;;18.95;6.65;;;8.60;99.90;;;;;;4961078;28;20514;-77
2022/10/07 06:03:25;;;;;;;20.60;7.10;;;8.60;99.90;;;;;;4967132;28;20381;-77
2022/10/07 06:05:51;;;;;;;21.17;6.60;;;8.70;99.90;;;;;;4960709;28;20039;-77
2022/10/07 06:08:19;;;;;;;21.80;6.65;;;8.60;99.90;;;;;;4940656;28;20062;-77
2022/10/07 06:13:34;;;;;;;21.00;6.65;;;8.70;99.90;;;;;;4960235;28;20043;-76
2022/10/07 06:16:07;;;;;;;17.42;6.97;;;8.70;99.90;;;;;;4963948;28;20081;-76
2022/10/07 06:18:36;;;;;;;20.35;6.20;;;8.80;99.90;;;;;;4974384;28;20058;-76
2022/10/07 06:21:02;;;;;;;24.23;6.95;;;8.80;99.90;;;;;;4974581;28;20043;-76
2022/10/07 06:23:28;;;;;;;24.88;6.80;;;8.80;99.90;;;;;;4958240;28;20058;-76
2022/10/07 06:25:59;;;;;;;22.45;6.60;;;8.80;99.90;;;;;;4960539;28;20078;-76
2022/10/07 06:28:25;;;;;;;20.70;6.63;;;8.90;99.90;;;;;;4981581;28;20050;-77
2022/10/07 06:30:51;;;;;;;21.27;6.50;;;8.90;99.90;;;;;;4961445;28;20035;-79
2022/10/07 06:33:18;;;;;;;18.15;6.57;;;9.00;99.90;;;;;;4950275;28;20051;-80
2022/10/07 06:35:44;;;;;;;18.83;6.15;;;9.00;99.90;;;;;;4969554;28;20051;-79
2022/10/07 06:38:13;;;;;;;21.38;6.63;;;9.00;99.90;;;;;;4968323;28;20122;-83
2022/10/07 06:40:39;;;;;;;21.48;6.97;;;9.10;99.90;;;;;;4969582;28;20503;-79
2022/10/07 06:43:05;;;;;;;15.63;6.05;;;9.20;99.90;;;;;;4953480;28;20039;-80
2022/10/07 06:45:32;;;;;;;19.08;6.45;;;9.30;99.90;;;;;;4966501;28;20047;-79
2022/10/07 06:47:58;;;;;;;19.80;6.22;;;9.40;99.90;;;;;;4973065;28;20502;-79
2022/10/07 06:50:24;;;;;;;19.77;6.22;;;9.40;99.90;;;;;;4975457;28;20035;-78
2022/10/07 06:52:49;;;;;;;20.92;6.43;;;9.60;99.90;;;;;;4982685;28;20046;-78
2022/10/07 06:55:16;;;;;;;19.40;5.95;;;9.60;99.90;;;;;;4981150;28;20100;-79
2022/10/07 06:57:44;;;;;;;16.30;5.72;;;9.70;99.90;;;;;;4961237;28;20046;-79
2022/10/07 07:00:10;;;;;;;18.60;5.75;;;9.70;99.90;;;;;;4973621;28;20125;-78
2022/10/07 07:02:36;;;;;;;20.92;6.70;;;9.80;99.90;;;;;;4940251;28;20049;-79
2022/10/07 07:05:04;;;;;;;17.58;5.65;;;9.80;99.90;;;;;;4964680;28;20038;-78
2022/10/07 07:07:30;;;;;;;18.00;5.60;;;9.90;99.90;;;;;;4977588;28;20560;-79
2022/10/07 07:09:56;;;;;;;20.55;6.50;;;9.90;99.90;;;;;;4957722;28;20038;-80
2022/10/07 07:12:25;;;;;;;19.42;5.60;;;9.90;99.90;;;;;;4984372;28;20120;-80
2022/10/07 07:14:51;;;;;;;19.40;5.65;;;9.90;99.90;;;;;;4956329;28;20038;-81
2022/10/07 07:17:17;;;;;;;19.67;5.72;;;10.00;99.90;;;;;;4940450;28;20045;-80
2022/10/07 07:19:44;;;;;;;16.65;5.35;;;10.00;99.90;;;;;;4961649;28;20045;-79
2022/10/07 07:22:10;;;;;;;16.88;5.60;;;10.00;99.90;;;;;;4959470;28;20046;-80
2022/10/07 07:24:35;;;;;;;20.15;5.40;;;10.00;99.90;;;;;;4941040;28;20122;-81
2022/10/07 07:27:01;;;;;;;17.65;5.78;;;10.00;99.90;;;;;;4985846;28;20538;-81
2022/10/07 07:29:27;;;;;;;19.70;5.60;;;10.10;99.90;;;;;;4936581;28;20047;-81
2022/10/07 07:31:53;;;;;;;20.42;5.75;;;10.10;99.90;;;;;;4963152;28;20050;-79
2022/10/07 07:34:19;;;;;;;18.02;5.22;;;10.20;99.90;;;;;;4960130;28;20065;-80
2022/10/07 07:36:49;;;;;;;16.92;5.07;;;10.30;99.90;;;;;;4952497;28;20491;-81
2022/10/07 07:39:16;;;;;;;20.50;5.68;;;10.30;99.90;;;;;;4967941;28;20499;-81
2022/10/07 07:41:45;;;;;;;14.82;4.95;;;10.40;99.90;;;;;;4990265;28;20606;-81
2022/10/07 07:44:13;;;;;;;15.75;5.35;;;10.50;99.90;;;;;;4973046;28;20046;-80
2022/10/07 07:46:42;;;;;;;17.67;4.82;;;10.60;99.90;;;;;;4976251;28;20051;-80
2022/10/07 07:49:10;;;;;;;16.83;5.13;;;10.70;99.90;;;;;;4961918;28;20051;-81
2022/10/07 07:51:37;;;;;;;18.33;4.93;;;10.80;99.90;;;;;;4955457;28;20044;-81
2022/10/07 07:54:03;;;;;;;16.48;4.90;;;10.90;99.90;;;;;;4970998;28;20038;-80
2022/10/07 07:56:30;;;;;;;14.82;4.88;;;11.00;99.90;;;;;;4961001;28;20550;-80
2022/10/07 07:58:56;;;;;;;15.80;4.75;;;11.00;99.90;;;;;;4957798;28;20046;-80
2022/10/07 08:01:22;;;;;;;15.13;4.65;;;11.10;99.90;;;;;;4955287;28;20058;-80
2022/10/07 08:03:48;;;;;;;18.35;4.80;;;11.30;99.90;;;;;;4945027;28;20085;-80
2022/10/07 08:06:16;;;;;;;16.70;4.40;;;11.50;99.90;;;;;;4970564;28;20055;-80
2022/10/07 08:08:42;;;;;;;16.80;4.50;;;11.70;99.90;;;;;;4955743;28;20041;-80
2022/10/07 08:11:16;;;;;;;12.02;3.92;;;11.80;99.90;;;;;;4979781;28;20042;-80
2022/10/07 08:13:42;;;;;;;12.77;4.15;;;11.90;99.90;;;;;;4970142;28;20479;-80
2022/10/07 08:16:12;;;;;;;16.60;4.28;;;12.00;99.90;;;;;;4972259;28;20101;-80
2022/10/07 08:18:39;;;;;;;15.70;4.32;;;12.10;99.90;;;;;;4956911;28;20046;-80
2022/10/07 08:21:06;;;;;;;16.58;4.45;;;12.20;99.90;;;;;;4977183;28;20076;-80
2022/10/07 08:23:34;;;;;;;14.23;4.03;;;12.20;99.90;;;;;;4926625;28;20049;-80
2022/10/07 08:26:00;;;;;;;15.52;4.10;;;12.20;99.90;;;;;;4972337;28;20177;-80
2022/10/07 08:28:27;;;;;;;17.67;4.35;;;12.30;99.90;;;;;;4961914;28;20105;-80
2022/10/07 08:31:04;;;;;;;15.95;4.20;;;12.40;99.90;;;;;;4954649;28;20479;-80
2022/10/07 08:33:35;;;;;;;14.38;4.05;;;12.40;99.90;;;;;;4958239;28;20050;-80
2022/10/07 08:36:03;;;;;;;16.70;4.30;;;12.50;99.90;;;;;;4973703;28;20035;-80
2022/10/07 08:38:34;;;;;;;16.17;3.97;;;12.70;99.90;;;;;;4978700;28;20046;-80
2022/10/07 08:41:22;;;;;;;16.53;4.20;;;12.80;99.90;;;;;;4970410;28;20479;-80
2022/10/07 08:43:49;;;;;;;15.40;3.85;;;12.90;99.90;;;;;;4974789;28;20514;-80
2022/10/07 08:46:36;;;;;;;14.25;3.72;;;13.00;99.90;;;;;;4972985;28;20046;-80
2022/10/07 08:49:12;;;;;;;13.02;3.55;;;13.10;99.90;;;;;;4975000;28;20049;-80
2022/10/07 08:51:47;;;;;;;18.83;3.80;;;13.10;99.90;;;;;;4977045;28;20047;-80
2022/10/07 08:54:15;;;;;;;14.20;3.67;;;13.20;99.90;;;;;;4968359;28;20509;-80
2022/10/07 08:56:47;;;;;;;18.15;3.67;;;13.20;99.90;;;;;;4977909;28;20109;-80
2022/10/07 08:59:13;;;;;;;;;;;13.30;99.90;;;;;;4975993;28;20038;-80
2022/10/07 09:02:12;;;;;;;16.83;3.67;;;13.30;99.90;;;;;;4972919;28;19936;-80
2022/10/07 09:04:56;;;;;;;14.07;3.65;;;13.20;99.90;;;;;;4960436;28;20046;-80
2022/10/07 09:07:30;;;;;;;17.63;4.07;;;13.30;99.90;;;;;;4976885;28;20508;-80
2022/10/07 09:10:08;;;;;;;15.55;3.50;;;13.30;99.90;;;;;;4974912;28;20043;-80
2022/10/07 09:12:50;;;;;;;18.38;3.72;;;13.40;99.90;;;;;;4969501;28;20039;-80
2022/10/07 09:15:40;;;;;;;16.30;3.65;;;13.60;99.90;;;;;;4977603;28;20548;-80
2022/10/07 09:18:19;;;;;;;16.65;3.63;;;13.90;99.90;;;;;;4979177;28;20105;-80
2022/10/07 09:20:52;;;;;;;14.10;4.00;;;14.10;99.90;;;;;;4980592;28;20396;-80
2022/10/07 09:23:23;;;;;;;16.60;3.60;;;14.40;99.90;;;;;;4979885;28;20078;-80
2022/10/07 09:25:50;;;;;;;17.23;3.92;;;14.60;99.90;;;;;;4959766;28;20042;-80
2022/10/07 09:28:20;;;;;;;19.25;4.13;;;14.80;99.90;;;;;;4980196;28;20050;-80
2022/10/07 09:30:46;;;;;;;16.17;3.63;;;15.00;99.90;;;;;;4956193;28;20497;-80
2022/10/07 09:33:19;;;;;;;19.92;3.78;;;15.20;99.90;;;;;;4983042;28;20051;-80
2022/10/07 09:36:20;;;;;;;14.98;3.72;;;15.30;99.90;;;;;;4968086;28;20057;-80
2022/10/07 09:38:51;;;;;;;14.52;3.35;;;15.40;99.90;;;;;;4963011;28;20050;-80
2022/10/07 09:41:31;;;;;;;14.95;3.53;;;15.60;99.90;;;;;;4975410;28;20118;-81
2022/10/07 09:44:14;;;;;;;14.55;3.72;;;15.70;99.90;;;;;;4960014;28;20085;-80
2022/10/07 09:46:56;;;;;;;15.82;3.80;;;15.90;99.90;;;;;;4965989;28;20043;-80
2022/10/07 09:49:27;;;;;;;15.05;3.50;;;16.10;99.90;;;;;;4960832;28;20042;-80
2022/10/07 09:52:04;;;;;;;16.23;3.00;;;16.30;99.90;;;;;;4962257;28;20165;-80
2022/10/07 09:54:32;;;;;;;13.57;3.58;;;16.40;99.90;;;;;;4974534;28;20057;-80
2022/10/07 09:57:01;;;;;;;11.88;3.05;;;16.40;99.90;;;;;;4980355;28;20039;-80
2022/10/07 09:59:32;;;;;;;13.30;2.92;;;16.60;99.90;;;;;;4975821;28;20043;-80
2022/10/07 10:02:13;;;;;;;12.13;2.92;;;16.60;99.90;;;;;;4970073;28;20046;-80
2022/10/07 10:04:56;;;;;;;15.20;3.57;;;16.60;99.90;;;;;;4955596;28;20050;-79
2022/10/07 10:07:27;;;;;;;12.77;3.15;;;16.60;99.90;;;;;;4984381;28;20518;-80
2022/10/07 10:09:56;;;;;;;12.98;2.83;;;16.70;99.90;;;;;;4979136;28;20085;-80
2022/10/07 10:12:23;;;;;;;14.90;3.20;;;16.80;99.90;;;;;;4963771;28;20042;-80
2022/10/07 10:14:52;;;;;;;13.60;3.10;;;16.90;99.90;;;;;;4961821;28;20058;-80
2022/10/07 10:17:35;;;;;;;13.55;3.05;;;17.10;99.90;;;;;;4960192;28;20053;-79
2022/10/07 10:20:30;;;;;;;12.38;2.90;;;17.20;99.90;;;;;;4958383;28;20047;-80
2022/10/07 10:22:57;;;;;;;14.35;3.00;;;17.30;99.90;;;;;;4979662;28;20054;-80
2022/10/07 10:28:50;;;;;;;16.35;3.13;;;17.50;99.90;;;;;;4931546;28;20046;-80
2022/10/07 10:31:38;;;;;;;14.90;3.40;;;17.70;99.90;;;;;;4959340;28;20043;-80
2022/10/07 10:34:29;;;;;;;12.73;2.78;;;17.80;99.90;;;;;;4973196;28;20520;-81
2022/10/07 10:37:15;;;;;;;18.80;3.60;;;17.80;99.90;;;;;;4977092;28;20478;-80
2022/10/07 10:40:02;;;;;;;14.05;3.00;;;17.70;99.90;;;;;;4963074;28;20069;-81
2022/10/07 10:43:03;;;;;;;14.02;3.00;;;17.70;99.90;;;;;;4972225;28;20050;-80
2022/10/07 10:46:07;;;;;;;13.43;2.85;;;17.80;99.90;;;;;;4960659;28;20150;-80
2022/10/07 10:48:43;;;;;;;15.07;3.33;;;17.90;99.90;;;;;;4953336;28;20549;-80
2022/10/07 10:51:32;;;;;;;14.00;3.17;;;18.00;99.90;;;;;;4981998;28;20561;-80
2022/10/07 10:53:58;;;;;;;14.02;2.97;;;17.90;99.90;;;;;;4977227;28;20062;-80
2022/10/07 10:57:03;;;;;;;13.57;2.90;;;17.90;99.90;;;;;;4974706;28;20039;-80
2022/10/07 10:59:38;;;;;;;12.60;2.80;;;18.00;99.90;;;;;;4972875;28;20050;-80
2022/10/07 11:02:35;;;;;;;12.50;2.95;;;18.10;99.90;;;;;;4975031;28;20516;-80
2022/10/07 11:05:24;;;;;;;13.52;2.80;;;18.20;99.90;;;;;;4969047;28;20047;-80
2022/10/07 11:07:57;;;;;;;15.75;3.10;;;18.30;99.90;;;;;;4976086;28;20113;-80
2022/10/07 11:10:58;;;;;;;15.05;2.95;;;18.40;99.90;;;;;;4979956;28;20185;-80
2022/10/07 11:13:42;;;;;;;12.18;2.90;;;18.40;99.90;;;;;;4962675;28;20042;-80
2022/10/07 11:16:29;;;;;;;12.90;2.78;;;18.40;99.90;;;;;;4925267;28;20052;-80
2022/10/07 11:19:08;;;;;;;10.20;2.60;;;18.40;99.90;;;;;;4957450;28;20482;-80
2022/10/07 11:21:38;;;;;;;14.52;2.90;;;18.50;99.90;;;;;;4976495;28;20057;-80
2022/10/07 11:24:23;;;;;;;13.60;2.88;;;18.50;99.90;;;;;;4971004;28;20050;-80
2022/10/07 11:26:59;;;;;;;14.27;3.10;;;18.50;99.90;;;;;;4970126;28;20063;-80
2022/10/07 11:29:27;;;;;;;14.27;3.20;;;18.60;99.90;;;;;;4956111;28;20526;-80
2022/10/07 11:32:20;;;;;;;17.02;3.20;;;18.60;99.90;;;;;;4971437;28;20102;-80
2022/10/07 11:35:03;;;;;;;12.38;3.08;;;18.60;99.90;;;;;;4973267;28;20043;-80
2022/10/07 11:38:13;;;;;;;14.85;3.13;;;18.50;99.90;;;;;;4971146;28;20073;-80
2022/10/07 11:40:44;;;;;;;11.07;3.03;;;18.50;99.90;;;;;;4964493;28;20042;-80
2022/10/07 11:43:39;;;;;;;11.40;2.72;;;18.40;99.90;;;;;;4985913;28;20045;-79
2022/10/07 11:46:20;;;;;;;13.38;3.03;;;18.30;99.90;;;;;;4971586;28;20502;-80
2022/10/07 11:49:09;;;;;;;13.00;3.13;;;18.30;99.90;;;;;;4955334;28;20039;-81
2022/10/07 11:51:50;;;;;;;12.88;3.05;;;18.30;99.90;;;;;;4961970;28;20118;-80
2022/10/07 11:54:19;;;;;;;12.73;2.67;;;18.30;99.90;;;;;;4980388;28;20084;-79
2022/10/07 11:56:48;;;;;;;12.77;3.38;;;18.40;99.90;;;;;;4974021;28;20039;-81
2022/10/07 11:59:42;;;;;;;16.20;3.30;;;18.50;99.90;;;;;;4978819;28;20498;-80
2022/10/07 12:02:26;;;;;;;14.18;3.40;;;18.50;99.90;;;;;;4968186;28;20078;-80
2022/10/07 12:04:53;;;;;;;12.45;3.05;;;18.50;99.90;;;;;;4972126;28;20039;-79
2022/10/07 12:07:31;;;;;;;12.88;3.10;;;18.50;99.90;;;;;;4958570;28;20043;-79
2022/10/07 12:10:00;;;;;;;11.07;2.67;;;18.50;99.90;;;;;;4980097;28;20116;-80
2022/10/07 12:12:42;;;;;;;12.90;2.95;;;18.60;99.90;;;;;;4975958;28;20057;-80
2022/10/07 12:15:39;;;;;;;14.95;3.20;;;18.60;99.90;;;;;;4977608;28;20046;-80
2022/10/07 12:18:04;;;;;;;10.70;2.85;;;18.50;99.90;;;;;;4946496;28;20134;-80
2022/10/07 12:20:33;;;;;;;11.80;3.00;;;18.50;99.90;;;;;;4958844;28;20133;-80
2022/10/07 12:23:27;;;;;;;12.93;2.95;;;18.60;99.90;;;;;;4971718;28;20046;-81
2022/10/07 12:25:57;;;;;;;11.00;2.65;;;18.60;99.90;;;;;;4974958;28;20043;-80
2022/10/07 12:28:49;;;;;;;13.48;3.00;;;18.50;99.90;;;;;;4958904;28;20502;-80
2022/10/07 12:31:14;;;;;;;14.07;3.30;;;18.50;99.90;;;;;;4956929;28;20114;-80
2022/10/07 12:33:46;;;;;;;13.07;2.65;;;18.30;99.90;;;;;;4956702;28;20438;-81
2022/10/07 12:36:18;;;;;;;12.75;2.70;;;18.20;99.90;;;;;;4958502;28;20467;-81
2022/10/07 12:39:00;;;;;;;12.23;2.95;;;18.10;99.90;;;;;;4964846;28;20054;-80
2022/10/07 12:41:30;;;;;;;14.65;2.90;;;18.10;99.90;;;;;;4967480;28;20074;-80
2022/10/07 12:44:05;;;;;;;11.55;2.78;;;18.00;99.90;;;;;;4975683;28;20510;-80
2022/10/07 12:46:40;;;;;;;11.70;2.63;;;17.80;99.90;;;;;;4982713;28;20060;-80
2022/10/07 12:49:12;;;;;;;11.45;2.63;;;17.80;99.90;;;;;;4960822;28;20046;-81
2022/10/07 12:51:39;;;;;;;11.73;2.30;;;17.90;99.90;;;;;;4982712;28;20097;-80
2022/10/07 12:54:11;;;;;;;10.68;2.50;;;18.00;99.90;;;;;;4960378;28;20035;-81
2022/10/07 12:56:42;;;;;;;13.18;2.72;;;18.00;99.90;;;;;;4981136;28;20038;-81
2022/10/07 12:59:49;;;;;;;11.02;2.28;;;18.00;99.90;;;;;;4962158;28;20046;-81
2022/10/07 13:02:26;;;;;;;11.52;2.60;;;18.10;99.90;;;;;;4977166;28;20422;-81
2022/10/07 13:05:10;;;;;;;8.98;2.30;;;18.10;99.90;;;;;;4976112;28;20038;-81
2022/10/07 13:08:07;;;;;;;13.93;2.40;;;18.10;99.90;;;;;;4962184;28;20446;-82
2022/10/07 13:10:38;;;;;;;10.73;2.30;;;18.20;99.90;;;;;;4978381;28;20041;-80
2022/10/07 13:13:10;;;;;;;9.65;2.40;;;18.20;99.90;;;;;;4963150;28;20039;-81
2022/10/07 13:15:46;;;;;;;9.73;2.33;;;18.20;99.90;;;;;;4987999;28;20490;-81
2022/10/07 13:18:40;;;;;;;11.90;2.58;;;18.20;99.90;;;;;;4975490;28;20046;-81
2022/10/07 13:21:11;;;;;;;10.07;2.50;;;18.20;99.90;;;;;;4977632;28;20051;-81